Time;durP1;ratioP1;P1;durP2;ratioP2;P2;SDS_P1;SDS_P2;PMS_P1;PMS_P2;Temp;Humidity;BMP_temperature;BMP_pressure;BME280_temperature;BME280_humidity;BME280_pressure;Samples;Min_cycle;Max_cycle;Signal;HPM_P1;HPM_P2
2023/08/05 00:00:54;;;;;;;5.20;2.08;;;;;;;;;;5023029;28;20100;-67
2023/08/05 00:03:19;;;;;;;5.65;2.05;;;;;;;;;;5018554;28;20627;-68
2023/08/05 00:05:45;;;;;;;5.32;1.90;;;;;;;;;;5016741;28;20049;-67
2023/08/05 00:08:10;;;;;;;4.53;1.90;;;;;;;;;;5025972;28;20547;-68
2023/08/05 00:10:37;;;;;;;6.90;1.83;;;;;;;;;;5014968;28;20254;-67
2023/08/05 00:13:03;;;;;;;5.15;1.83;;;;;;;;;;5020772;28;20251;-66
2023/08/05 00:15:28;;;;;;;5.07;1.70;;;;;;;;;;5016554;28;20025;-66
2023/08/05 00:17:56;;;;;;;7.63;2.35;;;;;;;;;;5015386;28;20841;-67
2023/08/05 00:20:21;;;;;;;7.75;2.00;;;;;;;;;;5021621;28;20589;-67
2023/08/05 00:22:49;;;;;;;7.63;2.05;;;;;;;;;;5017741;28;20594;-67
2023/08/05 00:25:16;;;;;;;5.28;2.00;;;;;;;;;;5020782;28;20306;-66
2023/08/05 00:27:41;;;;;;;4.95;1.75;;;;;;;;;;5027672;28;20022;-68
2023/08/05 00:30:09;;;;;;;5.43;1.97;;;;;;;;;;5035469;28;20683;-67
2023/08/05 00:32:36;;;;;;;6.85;2.40;;;;;;;;;;5009674;28;20984;-68
2023/08/05 00:35:02;;;;;;;6.63;1.98;;;;;;;;;;5014450;28;20017;-67
2023/08/05 00:37:27;;;;;;;6.57;2.00;;;;;;;;;;5016945;28;20082;-67
2023/08/05 00:39:52;;;;;;;6.33;2.07;;;;;;;;;;5016567;28;20013;-68
2023/08/05 00:42:19;;;;;;;4.97;1.93;;;;;;;;;;5012541;28;20342;-67
2023/08/05 00:44:44;;;;;;;7.50;2.33;;;;;;;;;;5014532;28;20256;-67
2023/08/05 00:47:14;;;;;;;6.47;2.58;;;;;;;;;;5015217;28;20029;-67
2023/08/05 00:49:39;;;;;;;4.47;1.90;;;;;;;;;;5016437;28;20017;-68
2023/08/05 00:52:06;;;;;;;4.47;1.90;;;;;;;;;;5014487;28;20515;-68
2023/08/05 00:54:32;;;;;;;6.00;2.10;;;;;;;;;;5013444;28;20255;-65
2023/08/05 00:56:57;;;;;;;4.85;1.90;;;;;;;;;;5015052;28;20084;-68
2023/08/05 00:59:22;;;;;;;5.90;1.80;;;;;;;;;;5016360;28;20108;-67
2023/08/05 01:01:47;;;;;;;5.67;2.00;;;;;;;;;;5020179;28;20252;-68
2023/08/05 01:04:13;;;;;;;6.87;2.00;;;;;;;;;;5011814;28;20033;-66
2023/08/05 01:06:39;;;;;;;6.43;1.98;;;;;;;;;;5017013;28;20276;-66
2023/08/05 01:09:06;;;;;;;6.03;2.10;;;;;;;;;;5018091;28;20021;-66
2023/08/05 01:11:34;;;;;;;3.95;1.67;;;;;;;;;;5033218;28;20126;-67
2023/08/05 01:14:04;;;;;;;5.80;1.88;;;;;;;;;;5018684;28;20136;-67
2023/08/05 01:16:29;;;;;;;4.57;1.80;;;;;;;;;;5017414;28;20040;-68
2023/08/05 01:18:55;;;;;;;5.40;1.93;;;;;;;;;;5018072;28;20025;-66
2023/08/05 01:21:28;;;;;;;4.90;1.80;;;;;;;;;;5013627;28;20272;-67
2023/08/05 01:24:03;;;;;;;5.78;2.03;;;;;;;;;;5015150;28;20772;-66
2023/08/05 01:26:28;;;;;;;5.68;2.15;;;;;;;;;;5018958;28;20026;-66
2023/08/05 01:28:54;;;;;;;5.15;1.90;;;;;;;;;;5014937;28;20015;-66
2023/08/05 01:31:19;;;;;;;5.10;1.85;;;;;;;;;;5011309;28;20022;-68
2023/08/05 01:33:46;;;;;;;4.85;2.03;;;;;;;;;;5012679;28;20021;-65
2023/08/05 01:36:18;;;;;;;5.68;1.95;;;;;;;;;;5016650;28;20032;-68
2023/08/05 01:38:43;;;;;;;6.43;2.00;;;;;;;;;;5008938;28;20017;-68
2023/08/05 01:41:08;;;;;;;5.60;2.10;;;;;;;;;;5017333;28;20044;-67
2023/08/05 01:43:34;;;;;;;5.50;1.87;;;;;;;;;;5015631;28;20036;-67
2023/08/05 01:45:59;;;;;;;4.73;2.07;;;;;;;;;;5007644;28;20321;-67
2023/08/05 01:48:26;;;;;;;6.80;1.93;;;;;;;;;;5010649;28;20245;-69
2023/08/05 01:50:52;;;;;;;6.07;2.05;;;;;;;;;;5008207;28;20272;-65
2023/08/05 01:53:19;;;;;;;5.30;2.33;;;;;;;;;;5013459;28;20033;-67
2023/08/05 01:55:46;;;;;;;5.20;1.73;;;;;;;;;;5008938;28;20022;-67
2023/08/05 01:58:12;;;;;;;5.97;2.00;;;;;;;;;;5014365;28;20373;-68
2023/08/05 02:00:37;;;;;;;8.83;2.00;;;;;;;;;;5011223;28;20025;-69
2023/08/05 02:03:02;;;;;;;6.00;1.80;;;;;;;;;;5009434;28;20660;-68
2023/08/05 02:05:28;;;;;;;4.43;1.55;;;;;;;;;;5019047;28;20296;-67
2023/08/05 02:07:53;;;;;;;5.15;1.80;;;;;;;;;;5013605;28;20021;-68
2023/08/05 02:10:18;;;;;;;5.07;1.67;;;;;;;;;;5013188;28;20539;-66
2023/08/05 02:12:44;;;;;;;5.03;1.80;;;;;;;;;;5014393;28;20492;-67
2023/08/05 02:15:13;;;;;;;6.63;1.80;;;;;;;;;;5018021;28;20498;-67
2023/08/05 02:17:39;;;;;;;6.82;1.90;;;;;;;;;;5010462;28;20298;-68
2023/08/05 02:20:05;;;;;;;4.23;1.70;;;;;;;;;;5018269;28;20136;-69
2023/08/05 02:22:30;;;;;;;5.40;1.77;;;;;;;;;;5013758;28;21037;-67
2023/08/05 02:24:55;;;;;;;4.60;1.70;;;;;;;;;;5038567;28;20020;-68
2023/08/05 02:27:23;;;;;;;5.10;1.90;;;;;;;;;;5015406;28;20377;-67
2023/08/05 02:29:48;;;;;;;4.93;1.75;;;;;;;;;;5026838;28;20916;-67
2023/08/05 02:32:13;;;;;;;4.57;1.60;;;;;;;;;;5015144;28;20025;-65
2023/08/05 02:34:39;;;;;;;4.43;1.75;;;;;;;;;;5012313;28;20291;-66
2023/08/05 02:37:04;;;;;;;6.47;1.70;;;;;;;;;;5019965;28;20017;-68
2023/08/05 02:39:29;;;;;;;4.67;1.93;;;;;;;;;;5012458;28;20679;-66
2023/08/05 02:41:54;;;;;;;4.47;1.60;;;;;;;;;;5027492;28;20511;-67
2023/08/05 02:44:20;;;;;;;5.93;1.63;;;;;;;;;;5017552;28;20280;-67
2023/08/05 02:46:45;;;;;;;5.60;1.65;;;;;;;;;;5013646;28;20326;-67
2023/08/05 02:49:10;;;;;;;4.85;1.75;;;;;;;;;;5017441;28;20021;-68
2023/08/05 02:51:36;;;;;;;5.63;1.60;;;;;;;;;;5017704;28;20024;-68
2023/08/05 02:54:01;;;;;;;4.90;1.50;;;;;;;;;;5012576;28;20275;-67
2023/08/05 02:56:27;;;;;;;5.18;1.50;;;;;;;;;;5016172;28;20020;-69
2023/08/05 02:58:54;;;;;;;4.20;1.40;;;;;;;;;;5012597;28;20522;-67
2023/08/05 03:01:20;;;;;;;4.50;1.40;;;;;;;;;;5008766;28;20260;-68
2023/08/05 03:03:47;;;;;;;4.10;1.20;;;;;;;;;;5011795;28;20026;-67
2023/08/05 03:06:13;;;;;;;3.90;1.30;;;;;;;;;;5009041;28;20256;-67
2023/08/05 03:08:41;;;;;;;3.75;1.30;;;;;;;;;;5002122;28;20280;-67
2023/08/05 03:11:08;;;;;;;5.20;1.30;;;;;;;;;;5009691;28;20025;-68
2023/08/05 03:13:33;;;;;;;3.85;1.08;;;;;;;;;;5005186;28;20025;-68
2023/08/05 03:16:06;;;;;;;3.23;0.93;;;;;;;;;;5007143;28;20106;-69
2023/08/05 03:18:34;;;;;;;3.70;1.10;;;;;;;;;;5011901;28;20248;-66
2023/08/05 03:20:59;;;;;;;2.42;0.80;;;;;;;;;;5016296;28;20045;-68
2023/08/05 03:23:24;;;;;;;3.77;1.03;;;;;;;;;;5006022;28;20032;-66
2023/08/05 03:25:52;;;;;;;4.37;1.03;;;;;;;;;;5016084;28;20821;-66
2023/08/05 03:28:17;;;;;;;2.88;0.90;;;;;;;;;;5015665;28;20333;-67
2023/08/05 03:30:43;;;;;;;3.07;1.07;;;;;;;;;;5006206;28;20686;-68
2023/08/05 03:33:08;;;;;;;3.80;0.90;;;;;;;;;;5009817;28;20278;-68
2023/08/05 03:35:33;;;;;;;2.40;0.90;;;;;;;;;;5012089;28;20256;-68
2023/08/05 03:37:58;;;;;;;4.40;1.00;;;;;;;;;;5013252;28;20017;-68
2023/08/05 03:40:24;;;;;;;3.55;0.82;;;;;;;;;;5014772;28;20240;-69
2023/08/05 03:42:51;;;;;;;3.20;1.00;;;;;;;;;;5008624;28;20057;-67
2023/08/05 03:45:19;;;;;;;2.58;0.90;;;;;;;;;;5009048;28;20729;-66
2023/08/05 03:47:46;;;;;;;2.83;0.80;;;;;;;;;;5011048;28;20083;-67
2023/08/05 03:50:12;;;;;;;4.00;0.90;;;;;;;;;;5009076;28;20050;-67
2023/08/05 03:52:39;;;;;;;1.80;0.50;;;;;;;;;;5021311;28;20536;-67
2023/08/05 03:55:07;;;;;;;2.42;0.90;;;;;;;;;;5020019;28;20252;-67
2023/08/05 03:57:35;;;;;;;2.90;0.70;;;;;;;;;;5024206;28;20091;-68
2023/08/05 04:00:00;;;;;;;1.35;0.50;;;;;;;;;;5046586;28;20159;-67
2023/08/05 04:02:26;;;;;;;2.55;0.68;;;;;;;;;;5016267;28;20009;-68
2023/08/05 04:04:52;;;;;;;1.92;0.57;;;;;;;;;;5018287;28;20061;-68
2023/08/05 04:07:19;;;;;;;1.52;0.50;;;;;;;;;;5017469;28;20018;-68
2023/08/05 04:09:45;;;;;;;1.35;0.40;;;;;;;;;;5016708;28;20137;-66
2023/08/05 04:12:14;;;;;;;1.30;0.40;;;;;;;;;;5017480;28;20032;-66
2023/08/05 04:14:40;;;;;;;0.65;0.20;;;;;;;;;;5013375;28;20070;-68
2023/08/05 04:17:05;;;;;;;1.08;0.20;;;;;;;;;;5019147;28;20109;-66
2023/08/05 04:19:32;;;;;;;0.65;0.20;;;;;;;;;;5015860;28;20049;-66
2023/08/05 04:22:01;;;;;;;2.28;0.32;;;;;;;;;;5019560;28;20012;-69
2023/08/05 04:24:29;;;;;;;2.13;0.38;;;;;;;;;;5022481;28;20082;-68
2023/08/05 04:26:55;;;;;;;1.05;0.30;;;;;;;;;;5032135;28;20024;-68
2023/08/05 04:29:23;;;;;;;1.85;0.40;;;;;;;;;;5020802;28;20021;-66
2023/08/05 04:31:48;;;;;;;1.23;0.30;;;;;;;;;;5014064;28;20102;-69
2023/08/05 04:34:14;;;;;;;1.20;0.20;;;;;;;;;;5019161;28;20476;-68
2023/08/05 04:36:48;;;;;;;1.83;0.20;;;;;;;;;;5014928;28;21187;-68
2023/08/05 04:39:13;;;;;;;1.42;0.20;;;;;;;;;;5017513;28;20560;-67
2023/08/05 04:41:43;;;;;;;1.00;0.10;;;;;;;;;;5013373;28;20017;-68
2023/08/05 04:44:11;;;;;;;0.10;0.10;;;;;;;;;;5011817;28;20338;-67
2023/08/05 04:46:36;;;;;;;0.47;0.20;;;;;;;;;;5020996;28;20053;-67
2023/08/05 04:49:05;;;;;;;0.40;0.10;;;;;;;;;;5011711;28;20862;-68
2023/08/05 04:51:33;;;;;;;1.38;0.10;;;;;;;;;;5013794;28;20022;-67
2023/08/05 04:53:58;;;;;;;0.20;0.10;;;;;;;;;;5020437;28;20056;-67
2023/08/05 04:56:25;;;;;;;0.88;0.25;;;;;;;;;;5014750;28;20690;-68
2023/08/05 04:58:50;;;;;;;1.42;0.25;;;;;;;;;;5010912;28;20045;-69
2023/08/05 05:01:17;;;;;;;1.37;0.30;;;;;;;;;;5010368;28;20715;-68
2023/08/05 05:03:46;;;;;;;0.80;0.20;;;;;;;;;;5014444;28;20981;-67
2023/08/05 05:06:13;;;;;;;0.82;0.20;;;;;;;;;;5015115;28;20540;-67
2023/08/05 05:08:39;;;;;;;1.05;0.25;;;;;;;;;;5011366;28;20072;-67
2023/08/05 05:11:04;;;;;;;0.87;0.40;;;;;;;;;;5015898;28;20788;-66
2023/08/05 05:13:29;;;;;;;0.20;0.05;;;;;;;;;;5016015;28;20295;-68
2023/08/05 05:15:55;;;;;;;0.60;0.10;;;;;;;;;;5014190;28;20036;-65
2023/08/05 05:18:20;;;;;;;1.23;0.20;;;;;;;;;;5018828;28;20022;-66
2023/08/05 05:20:50;;;;;;;1.75;0.15;;;;;;;;;;5019532;28;20309;-70
2023/08/05 05:23:18;;;;;;;1.05;0.08;;;;;;;;;;5012339;28;21001;-68
2023/08/05 05:25:44;;;;;;;0.80;0.20;;;;;;;;;;5010334;28;20052;-66
2023/08/05 05:28:09;;;;;;;0.85;0.10;;;;;;;;;;5015573;28;20017;-67
2023/08/05 05:30:35;;;;;;;0.00;0.00;;;;;;;;;;5018174;28;20028;-69
2023/08/05 05:33:00;;;;;;;0.57;0.15;;;;;;;;;;5017020;28;20849;-72
2023/08/05 05:35:26;;;;;;;1.00;0.10;;;;;;;;;;5014692;28;20022;-69
2023/08/05 05:37:53;;;;;;;0.10;0.10;;;;;;;;;;5031176;28;20087;-68
2023/08/05 05:40:19;;;;;;;0.57;0.10;;;;;;;;;;5017015;28;20256;-68
2023/08/05 05:42:50;;;;;;;0.03;0.00;;;;;;;;;;5016074;28;20797;-69
2023/08/05 05:45:15;;;;;;;0.05;0.00;;;;;;;;;;5014309;28;20698;-71
2023/08/05 05:47:41;;;;;;;0.00;0.00;;;;;;;;;;5026855;28;20029;-62
2023/08/05 05:50:09;;;;;;;0.15;0.10;;;;;;;;;;5008550;28;20103;-68
2023/08/05 05:52:34;;;;;;;0.45;0.10;;;;;;;;;;5033938;28;20021;-67
2023/08/05 05:55:03;;;;;;;3.30;1.30;;;;;;;;;;5011126;28;21449;-70
2023/08/05 05:57:28;;;;;;;5.50;1.98;;;;;;;;;;5011551;28;20260;-67
2023/08/05 05:59:54;;;;;;;2.00;0.55;;;;;;;;;;5014930;28;20048;-70
2023/08/05 06:02:20;;;;;;;2.83;0.55;;;;;;;;;;5007936;28;20831;-66
2023/08/05 06:04:47;;;;;;;2.30;0.70;;;;;;;;;;5016451;28;20423;-65
2023/08/05 06:07:12;;;;;;;1.40;0.40;;;;;;;;;;5013371;28;20029;-69
2023/08/05 06:09:37;;;;;;;1.50;0.60;;;;;;;;;;5014185;28;20021;-66
2023/08/05 06:12:03;;;;;;;0.90;0.23;;;;;;;;;;5013480;28;20713;-69
2023/08/05 06:14:31;;;;;;;1.73;0.17;;;;;;;;;;5014398;28;20116;-69
2023/08/05 06:16:56;;;;;;;0.60;0.15;;;;;;;;;;5013626;28;20104;-68
2023/08/05 06:19:26;;;;;;;0.50;0.20;;;;;;;;;;5009356;28;20050;-68
2023/08/05 06:21:51;;;;;;;0.40;0.15;;;;;;;;;;5012737;28;20103;-70
2023/08/05 06:24:17;;;;;;;1.02;0.30;;;;;;;;;;5015135;28;20464;-68
2023/08/05 06:26:42;;;;;;;0.63;0.20;;;;;;;;;;5012970;28;20025;-67
2023/08/05 06:29:07;;;;;;;1.97;0.20;;;;;;;;;;5015133;28;20244;-70
2023/08/05 06:31:33;;;;;;;2.40;0.82;;;;;;;;;;5011491;28;20079;-70
2023/08/05 06:33:58;;;;;;;1.90;0.77;;;;;;;;;;5014272;28;20123;-72
2023/08/05 06:36:25;;;;;;;1.30;0.40;;;;;;;;;;5015789;28;20253;-65
2023/08/05 06:38:53;;;;;;;1.40;0.40;;;;;;;;;;5012585;28;20085;-64
2023/08/05 06:41:21;;;;;;;1.00;0.20;;;;;;;;;;5010327;28;20067;-70
2023/08/05 06:43:46;;;;;;;4.07;1.70;;;;;;;;;;5014105;28;20311;-68
2023/08/05 06:46:11;;;;;;;5.03;2.70;;;;;;;;;;5011730;28;20040;-68
2023/08/05 06:48:36;;;;;;;7.67;5.50;;;;;;;;;;5013069;28;20033;-69
2023/08/05 06:51:02;;;;;;;15.60;12.73;;;;;;;;;;5018819;28;20355;-69
2023/08/05 06:53:27;;;;;;;11.60;9.90;;;;;;;;;;5012998;28;20021;-68
2023/08/05 06:56:03;;;;;;;9.43;8.37;;;;;;;;;;5012171;28;20290;-69
2023/08/05 06:58:28;;;;;;;5.90;3.72;;;;;;;;;;5023231;28;20256;-68
2023/08/05 07:00:56;;;;;;;1.60;0.80;;;;;;;;;;5013585;28;20023;-68
2023/08/05 07:03:23;;;;;;;2.20;0.60;;;;;;;;;;5008574;28;20646;-72
2023/08/05 07:05:48;;;;;;;0.47;0.25;;;;;;;;;;5011462;28;20075;-64
2023/08/05 07:08:14;;;;;;;1.58;0.20;;;;;;;;;;5011153;28;20025;-65
2023/08/05 07:10:39;;;;;;;0.30;0.10;;;;;;;;;;5004616;28;20103;-64
2023/08/05 07:13:06;;;;;;;51.80;31.40;;;;;;;;;;5012246;28;20251;-67
2023/08/05 07:15:36;;;;;;;95.68;28.08;;;;;;;;;;5013048;28;20249;-64
2023/08/05 07:18:04;;;;;;;65.78;18.33;;;;;;;;;;5011775;28;20072;-64
2023/08/05 07:20:32;;;;;;;19.73;5.13;;;;;;;;;;5009999;28;20745;-65
2023/08/05 07:23:00;;;;;;;32.45;9.13;;;;;;;;;;5006076;28;20558;-65
2023/08/05 07:25:29;;;;;;;57.15;16.80;;;;;;;;;;5016430;28;20021;-63
2023/08/05 07:27:54;;;;;;;32.83;10.25;;;;;;;;;;5008853;28;20013;-65
2023/08/05 07:30:19;;;;;;;33.00;9.90;;;;;;;;;;5016647;28;20342;-65
2023/08/05 07:32:47;;;;;;;16.47;4.70;;;;;;;;;;5019884;28;20252;-65
2023/08/05 07:35:13;;;;;;;51.78;16.30;;;;;;;;;;5014305;28;20305;-66
2023/08/05 07:37:38;;;;;;;32.60;10.88;;;;;;;;;;5017922;28;20021;-64
2023/08/05 07:40:05;;;;;;;13.00;3.45;;;;;;;;;;5013576;28;20033;-65
2023/08/05 07:42:32;;;;;;;24.08;8.00;;;;;;;;;;5017299;28;20021;-64
2023/08/05 07:45:00;;;;;;;21.63;7.25;;;;;;;;;;5015676;28;20718;-65
2023/08/05 07:47:26;;;;;;;21.27;7.22;;;;;;;;;;5049042;28;20124;-66
2023/08/05 07:49:51;;;;;;;12.88;5.00;;;;;;;;;;5020706;28;20017;-64
2023/08/05 07:52:16;;;;;;;15.03;5.20;;;;;;;;;;5016246;28;20026;-68
2023/08/05 07:54:42;;;;;;;10.68;3.85;;;;;;;;;;5019413;28;20276;-67
2023/08/05 07:57:10;;;;;;;5.40;1.55;;;;;;;;;;5035392;28;20107;-66
2023/08/05 07:59:35;;;;;;;4.45;1.58;;;;;;;;;;5020828;28;20021;-66
2023/08/05 08:02:01;;;;;;;3.60;1.00;;;;;;;;;;5031543;28;20036;-66
2023/08/05 08:04:27;;;;;;;4.50;1.27;;;;;;;;;;5010150;28;20136;-63
2023/08/05 08:06:52;;;;;;;3.40;0.98;;;;;;;;;;5013424;28;20029;-64
2023/08/05 08:09:17;;;;;;;2.90;0.80;;;;;;;;;;5013217;28;20038;-64
2023/08/05 08:11:43;;;;;;;2.60;0.70;;;;;;;;;;5021299;28;20286;-64
2023/08/05 08:14:08;;;;;;;2.35;0.73;;;;;;;;;;5016878;28;20025;-64
2023/08/05 08:16:36;;;;;;;2.10;0.70;;;;;;;;;;5021926;28;20025;-63
2023/08/05 08:19:04;;;;;;;1.08;0.43;;;;;;;;;;5017245;28;20307;-61
2023/08/05 08:21:31;;;;;;;1.02;0.32;;;;;;;;;;5020821;28;20021;-65
2023/08/05 08:23:57;;;;;;;1.15;0.30;;;;;;;;;;5018516;28;20030;-64
2023/08/05 08:26:22;;;;;;;1.20;0.40;;;;;;;;;;5017155;28;20021;-64
2023/08/05 08:28:49;;;;;;;0.90;0.33;;;;;;;;;;5015181;28;20576;-65
2023/08/05 08:31:15;;;;;;;2.33;0.40;;;;;;;;;;5014778;28;20413;-64
2023/08/05 08:33:40;;;;;;;2.27;0.40;;;;;;;;;;5010768;28;20092;-64
2023/08/05 08:36:05;;;;;;;0.98;0.30;;;;;;;;;;5005237;28;20347;-64
2023/08/05 08:38:30;;;;;;;1.83;0.60;;;;;;;;;;5012683;28;20401;-64
2023/08/05 08:40:57;;;;;;;0.63;0.30;;;;;;;;;;5015752;28;20022;-65
2023/08/05 08:43:25;;;;;;;2.17;0.70;;;;;;;;;;5012850;28;20280;-68
2023/08/05 08:45:51;;;;;;;0.77;0.20;;;;;;;;;;5013195;28;20124;-62
2023/08/05 08:48:17;;;;;;;3.15;1.10;;;;;;;;;;5015632;28;20049;-66
2023/08/05 08:50:43;;;;;;;10.50;6.53;;;;;;;;;;5017305;28;20034;-63
2023/08/05 08:53:12;;;;;;;37.38;17.92;;;;;;;;;;5015064;28;20474;-63
2023/08/05 08:55:38;;;;;;;4.65;1.40;;;;;;;;;;5011838;28;20025;-64
2023/08/05 08:58:04;;;;;;;12.95;5.55;;;;;;;;;;5018653;28;20137;-65
2023/08/05 09:00:30;;;;;;;44.07;21.87;;;;;;;;;;5014428;28;20466;-64
2023/08/05 09:02:56;;;;;;;66.90;36.95;;;;;;;;;;5013586;28;20733;-65
2023/08/05 09:05:24;;;;;;;31.17;16.77;;;;;;;;;;5018011;28;20028;-63
2023/08/05 09:07:50;;;;;;;10.85;6.55;;;;;;;;;;5017204;28;20064;-65
2023/08/05 09:10:15;;;;;;;1.83;0.40;;;;;;;;;;5013389;28;20031;-64
2023/08/05 09:12:41;;;;;;;2.13;0.57;;;;;;;;;;5015978;28;20029;-63
2023/08/05 09:15:09;;;;;;;0.50;0.20;;;;;;;;;;5014167;28;21319;-63
2023/08/05 09:17:40;;;;;;;0.65;0.20;;;;;;;;;;5007127;28;20983;-67
2023/08/05 09:20:16;;;;;;;0.75;0.15;;;;;;;;;;5012867;28;20061;-63
2023/08/05 09:22:52;;;;;;;0.50;0.10;;;;;;;;;;5006366;28;20104;-64
2023/08/05 09:25:17;;;;;;;0.43;0.10;;;;;;;;;;5006742;28;20022;-64
2023/08/05 09:27:46;;;;;;;0.60;0.10;;;;;;;;;;5007805;28;20486;-64
2023/08/05 09:30:18;;;;;;;0.73;0.17;;;;;;;;;;5008402;28;20022;-64
2023/08/05 09:32:45;;;;;;;1.85;0.10;;;;;;;;;;5027442;28;20021;-64
2023/08/05 09:35:11;;;;;;;0.30;0.10;;;;;;;;;;5007390;28;20056;-64
2023/08/05 09:37:40;;;;;;;4.18;1.70;;;;;;;;;;5015625;28;20758;-64
2023/08/05 09:40:16;;;;;;;3.92;1.40;;;;;;;;;;5012201;28;20088;-65
2023/08/05 09:42:47;;;;;;;2.38;0.25;;;;;;;;;;5001941;28;20053;-64
2023/08/05 09:45:12;;;;;;;0.43;0.20;;;;;;;;;;5014900;28;20502;-65
2023/08/05 09:47:38;;;;;;;0.63;0.10;;;;;;;;;;5013487;28;20024;-66
2023/08/05 09:50:07;;;;;;;0.95;0.20;;;;;;;;;;5016255;28;20870;-65
2023/08/05 09:52:35;;;;;;;;;;;;;;;;;;5026586;28;20044;-65
2023/08/05 09:55:03;;;;;;;0.70;0.20;;;;;;;;;;5014901;28;20646;-64
2023/08/05 09:57:29;;;;;;;0.93;0.20;;;;;;;;;;5006876;28;20480;-63
2023/08/05 09:59:58;;;;;;;0.73;0.10;;;;;;;;;;5004733;28;20013;-65
2023/08/05 10:02:25;;;;;;;0.90;0.30;;;;;;;;;;5013703;28;20026;-63
2023/08/05 10:04:53;;;;;;;0.55;0.10;;;;;;;;;;5013334;28;20891;-63
2023/08/05 10:07:19;;;;;;;0.60;0.10;;;;;;;;;;5010096;28;20025;-64
2023/08/05 10:09:45;;;;;;;0.52;0.25;;;;;;;;;;5044856;28;20132;-64
2023/08/05 10:12:11;;;;;;;0.57;0.10;;;;;;;;;;5016463;28;20048;-64
2023/08/05 10:14:36;;;;;;;0.75;0.30;;;;;;;;;;5009868;28;20024;-63
2023/08/05 10:17:02;;;;;;;0.83;0.20;;;;;;;;;;5009271;28;20813;-63
2023/08/05 10:19:28;;;;;;;1.55;0.17;;;;;;;;;;5010678;28;20320;-66
2023/08/05 10:22:05;;;;;;;1.00;0.10;;;;;;;;;;5014170;28;20616;-66
2023/08/05 10:24:48;;;;;;;1.33;0.20;;;;;;;;;;5012147;28;20454;-64
2023/08/05 10:27:15;;;;;;;1.15;0.30;;;;;;;;;;5007017;28;20099;-63
2023/08/05 10:29:51;;;;;;;0.87;0.20;;;;;;;;;;5017092;28;20029;-63
2023/08/05 10:32:17;;;;;;;0.43;0.00;;;;;;;;;;5011142;28;20045;-65
2023/08/05 10:34:42;;;;;;;0.17;0.00;;;;;;;;;;5014580;28;20051;-63
2023/08/05 10:37:10;;;;;;;0.50;0.10;;;;;;;;;;5019963;28;20355;-63
2023/08/05 10:39:44;;;;;;;0.28;0.00;;;;;;;;;;5008035;28;20283;-64
2023/08/05 10:42:19;;;;;;;0.90;0.20;;;;;;;;;;5017645;28;20021;-64
2023/08/05 10:44:46;;;;;;;0.82;0.13;;;;;;;;;;5012359;28;20709;-65
2023/08/05 10:47:11;;;;;;;0.60;0.20;;;;;;;;;;5010183;28;20021;-65
2023/08/05 10:49:40;;;;;;;0.90;0.30;;;;;;;;;;5017304;28;20528;-63
2023/08/05 10:52:14;;;;;;;2.00;0.50;;;;;;;;;;5017583;28;20248;-64
2023/08/05 10:54:39;;;;;;;1.90;0.20;;;;;;;;;;5014364;28;20544;-65
2023/08/05 10:57:28;;;;;;;0.57;0.20;;;;;;;;;;5006821;28;20029;-64
2023/08/05 10:59:59;;;;;;;0.00;0.00;;;;;;;;;;5004936;28;20303;-64
2023/08/05 11:02:25;;;;;;;0.08;0.00;;;;;;;;;;5008303;28;20037;-63
2023/08/05 11:04:50;;;;;;;0.43;0.10;;;;;;;;;;5009839;28;20036;-64
2023/08/05 11:07:16;;;;;;;1.48;0.10;;;;;;;;;;5009182;28;20935;-65
2023/08/05 11:09:42;;;;;;;0.25;0.10;;;;;;;;;;5009294;28;20017;-63
2023/08/05 11:12:07;;;;;;;1.15;0.30;;;;;;;;;;5005677;28;21048;-64
2023/08/05 11:14:34;;;;;;;0.85;0.30;;;;;;;;;;5014404;28;20655;-63
2023/08/05 11:17:04;;;;;;;0.45;0.17;;;;;;;;;;5011183;28;20039;-64
2023/08/05 11:19:51;;;;;;;0.40;0.10;;;;;;;;;;5004506;28;20444;-64
2023/08/05 11:22:30;;;;;;;0.00;0.00;;;;;;;;;;5013004;28;20022;-65
2023/08/05 11:25:06;;;;;;;0.95;0.30;;;;;;;;;;5003944;28;20053;-64
2023/08/05 11:27:36;;;;;;;0.45;0.20;;;;;;;;;;5007722;28;20013;-64
2023/08/05 11:30:19;;;;;;;4.68;0.30;;;;;;;;;;5006916;28;20017;-64
2023/08/05 11:32:52;;;;;;;0.68;0.10;;;;;;;;;;5011067;28;20026;-65
2023/08/05 11:35:17;;;;;;;0.32;0.13;;;;;;;;;;5008622;28;20048;-66
2023/08/05 11:37:45;;;;;;;0.73;0.10;;;;;;;;;;5010756;28;20216;-64
2023/08/05 11:40:10;;;;;;;0.00;0.00;;;;;;;;;;5007968;28;20338;-63
2023/08/05 11:42:37;;;;;;;3.17;0.20;;;;;;;;;;5008037;28;20028;-64
2023/08/05 11:45:02;;;;;;;0.93;0.22;;;;;;;;;;5008801;28;20029;-65
2023/08/05 11:47:27;;;;;;;0.57;0.10;;;;;;;;;;5010661;28;20082;-64
2023/08/05 11:49:54;;;;;;;0.20;0.10;;;;;;;;;;5011749;28;20028;-64
2023/08/05 11:52:22;;;;;;;1.65;0.20;;;;;;;;;;5012112;28;20592;-64
2023/08/05 11:54:59;;;;;;;0.68;0.20;;;;;;;;;;5010726;28;20322;-64
2023/08/05 11:57:25;;;;;;;1.23;0.20;;;;;;;;;;5009320;28;20621;-64
2023/08/05 11:59:59;;;;;;;1.00;0.30;;;;;;;;;;5011064;28;20134;-63
2023/08/05 12:02:24;;;;;;;0.32;0.10;;;;;;;;;;5010241;28;20903;-64
2023/08/05 12:04:51;;;;;;;0.67;0.20;;;;;;;;;;5015523;28;20065;-64
2023/08/05 12:07:17;;;;;;;0.50;0.20;;;;;;;;;;5010443;28;20268;-65
2023/08/05 12:09:45;;;;;;;0.77;0.20;;;;;;;;;;5013272;28;20488;-64
2023/08/05 12:12:14;;;;;;;2.70;0.20;;;;;;;;;;5010082;28;20095;-64
2023/08/05 12:14:39;;;;;;;0.90;0.20;;;;;;;;;;5014615;28;20025;-65
2023/08/05 12:17:05;;;;;;;1.20;0.30;;;;;;;;;;5008854;28;20064;-64
2023/08/05 12:19:30;;;;;;;0.82;0.20;;;;;;;;;;5015278;28;20092;-65
2023/08/05 12:21:55;;;;;;;0.87;0.20;;;;;;;;;;5016836;28;20090;-65
2023/08/05 12:24:20;;;;;;;0.77;0.20;;;;;;;;;;5009499;28;20797;-64
2023/08/05 12:26:46;;;;;;;0.63;0.20;;;;;;;;;;5015694;28;20566;-64
2023/08/05 12:29:11;;;;;;;0.50;0.10;;;;;;;;;;5012825;28;20491;-65
2023/08/05 12:31:36;;;;;;;1.10;0.23;;;;;;;;;;5011742;28;20271;-64
2023/08/05 12:34:01;;;;;;;0.40;0.17;;;;;;;;;;5009751;28;20478;-65
2023/08/05 12:36:29;;;;;;;0.30;0.10;;;;;;;;;;5013065;28;20111;-64
2023/08/05 12:38:55;;;;;;;0.55;0.20;;;;;;;;;;5014834;28;21007;-64
2023/08/05 12:41:23;;;;;;;0.55;0.17;;;;;;;;;;5011326;28;20025;-64
2023/08/05 12:43:48;;;;;;;0.43;0.10;;;;;;;;;;5008684;28;20478;-63
2023/08/05 12:46:14;;;;;;;0.27;0.10;;;;;;;;;;5014399;28;20028;-64
2023/08/05 12:48:43;;;;;;;0.23;0.10;;;;;;;;;;5012914;28;20974;-63
2023/08/05 12:51:08;;;;;;;0.17;0.00;;;;;;;;;;5013660;28;20643;-64
2023/08/05 12:53:34;;;;;;;0.22;0.10;;;;;;;;;;5008969;28;20033;-64
2023/08/05 12:55:59;;;;;;;0.45;0.10;;;;;;;;;;5015933;28;20017;-64
2023/08/05 12:58:24;;;;;;;0.23;0.10;;;;;;;;;;5015324;28;20068;-64
2023/08/05 13:00:50;;;;;;;0.70;0.25;;;;;;;;;;5010472;28;20404;-63
2023/08/05 13:03:15;;;;;;;0.50;0.20;;;;;;;;;;5013907;28;20013;-64
2023/08/05 13:05:40;;;;;;;1.03;0.20;;;;;;;;;;5015752;28;20114;-64
2023/08/05 13:08:05;;;;;;;0.40;0.00;;;;;;;;;;5009162;28;20025;-63
2023/08/05 13:10:31;;;;;;;0.28;0.13;;;;;;;;;;5012771;28;20099;-63
2023/08/05 13:12:56;;;;;;;1.00;0.20;;;;;;;;;;5012253;28;20133;-63
2023/08/05 13:15:22;;;;;;;0.67;0.20;;;;;;;;;;5012737;28;20415;-63
2023/08/05 13:17:47;;;;;;;1.00;0.30;;;;;;;;;;5015567;28;20811;-63
2023/08/05 13:20:15;;;;;;;0.43;0.10;;;;;;;;;;5010091;28;20049;-64
2023/08/05 13:22:43;;;;;;;0.68;0.17;;;;;;;;;;5011244;28;20052;-64
2023/08/05 13:25:08;;;;;;;0.50;0.20;;;;;;;;;;5009888;28;20036;-61
2023/08/05 13:27:34;;;;;;;0.38;0.20;;;;;;;;;;5011555;28;20026;-65
2023/08/05 13:30:01;;;;;;;0.57;0.20;;;;;;;;;;5019536;28;20419;-64
2023/08/05 13:32:27;;;;;;;0.73;0.20;;;;;;;;;;5017495;28;20033;-63
2023/08/05 13:34:52;;;;;;;1.27;0.40;;;;;;;;;;5010880;28;20029;-64
2023/08/05 13:37:17;;;;;;;1.90;0.50;;;;;;;;;;5008657;28;20030;-65
2023/08/05 13:39:50;;;;;;;0.90;0.30;;;;;;;;;;5013471;28;20029;-64
2023/08/05 13:42:15;;;;;;;1.33;0.20;;;;;;;;;;5013637;28;20032;-64
2023/08/05 13:44:40;;;;;;;0.17;0.10;;;;;;;;;;5006975;28;20033;-65
2023/08/05 13:47:08;;;;;;;0.40;0.20;;;;;;;;;;5007708;28;20022;-66
2023/08/05 13:49:33;;;;;;;0.73;0.20;;;;;;;;;;5005256;28;20013;-67
2023/08/05 13:51:58;;;;;;;0.73;0.20;;;;;;;;;;5008083;28;20029;-65
2023/08/05 13:54:24;;;;;;;1.33;0.40;;;;;;;;;;5009467;28;20269;-63
2023/08/05 13:56:49;;;;;;;1.57;0.40;;;;;;;;;;5001925;28;20140;-65
2023/08/05 13:59:15;;;;;;;0.70;0.20;;;;;;;;;;5003258;28;20279;-65
2023/08/05 14:01:44;;;;;;;0.73;0.20;;;;;;;;;;5026712;28;20033;-66
2023/08/05 14:04:09;;;;;;;;;;;;;;;;;;5008422;28;20029;-65
2023/08/05 14:06:35;;;;;;;0.57;0.20;;;;;;;;;;5013649;28;20322;-66
2023/08/05 14:09:05;;;;;;;1.27;0.25;;;;;;;;;;5007777;28;20032;-66
2023/08/05 14:11:31;;;;;;;0.38;0.20;;;;;;;;;;5039373;28;20029;-66
2023/08/05 14:13:56;;;;;;;1.83;0.30;;;;;;;;;;5006355;28;20083;-66
2023/08/05 14:16:22;;;;;;;0.77;0.28;;;;;;;;;;5005593;28;20021;-65
2023/08/05 14:18:47;;;;;;;1.43;0.30;;;;;;;;;;5009637;28;20041;-65
2023/08/05 14:21:12;;;;;;;0.90;0.20;;;;;;;;;;5010899;28;20025;-64
2023/08/05 14:23:38;;;;;;;1.93;0.27;;;;;;;;;;5008816;28;20005;-63
2023/08/05 14:26:03;;;;;;;1.00;0.30;;;;;;;;;;5015238;28;20371;-66
2023/08/05 14:28:28;;;;;;;1.17;0.30;;;;;;;;;;5013810;28;20263;-64
2023/08/05 14:30:54;;;;;;;0.93;0.20;;;;;;;;;;5005799;28;20307;-69
2023/08/05 14:33:19;;;;;;;1.70;0.50;;;;;;;;;;5008143;28;20051;-62
2023/08/05 14:35:47;;;;;;;1.27;0.30;;;;;;;;;;5006689;28;20264;-66
2023/08/05 14:38:12;;;;;;;2.05;0.40;;;;;;;;;;5001901;28;20020;-66
2023/08/05 14:40:38;;;;;;;2.67;0.30;;;;;;;;;;5005454;28;20026;-65